Time;durP1;ratioP1;P1;durP2;ratioP2;P2;SDS_P1;SDS_P2;PMS_P1;PMS_P2;Temp;Humidity;BMP_temperature;BMP_pressure;BME280_temperature;BME280_humidity;BME280_pressure;Samples;Min_cycle;Max_cycle;Signal;HPM_P1;HPM_P2
2021/09/17 00:00:43;;;;;;;3.90;3.60;;;;;22.20;100648.00;;;;2063509;28;20207;-54
2021/09/17 00:01:44;;;;;;;4.20;3.80;;;;;22.20;100649.00;;;;2062837;28;20242;-56
2021/09/17 00:02:44;;;;;;;3.70;3.40;;;;;22.10;100645.00;;;;2063006;28;20829;-56
2021/09/17 00:03:44;;;;;;;3.87;3.57;;;;;22.10;100638.00;;;;2063115;28;20215;-56
2021/09/17 00:04:45;;;;;;;3.97;3.40;;;;;22.10;100640.00;;;;2063173;28;20273;-52
2021/09/17 00:05:45;;;;;;;4.67;3.70;;;;;22.10;100648.00;;;;2063363;28;20231;-53
2021/09/17 00:06:45;;;;;;;3.10;2.90;;;;;22.10;100642.00;;;;2063196;28;20222;-54
2021/09/17 00:07:46;;;;;;;4.00;3.63;;;;;22.10;100636.00;;;;2063565;28;20356;-53
2021/09/17 00:08:46;;;;;;;3.70;3.20;;;;;22.10;100639.00;;;;2062722;28;20219;-56
2021/09/17 00:09:46;;;;;;;3.80;3.40;;;;;22.10;100640.00;;;;2063078;28;20211;-54
2021/09/17 00:10:47;;;;;;;4.17;3.67;;;;;22.10;100640.00;;;;2063361;28;20214;-55
2021/09/17 00:11:47;;;;;;;3.70;3.40;;;;;22.20;100639.00;;;;2063143;28;20261;-53
2021/09/17 00:12:48;;;;;;;3.97;3.43;;;;;22.10;100638.00;;;;2063051;28;20307;-55
2021/09/17 00:13:48;;;;;;;3.67;3.37;;;;;22.10;100636.00;;;;2063057;28;20234;-56
2021/09/17 00:14:49;;;;;;;7.10;3.60;;;;;22.10;100634.00;;;;2063424;28;20222;-55
2021/09/17 00:15:49;;;;;;;3.33;2.87;;;;;22.10;100628.00;;;;2063492;28;20218;-56
2021/09/17 00:16:50;;;;;;;3.57;3.27;;;;;22.10;100634.00;;;;2063049;28;20296;-53
2021/09/17 00:17:50;;;;;;;4.73;3.40;;;;;22.10;100632.00;;;;2063230;28;20281;-54
2021/09/17 00:18:50;;;;;;;3.27;2.97;;;;;22.10;100633.00;;;;2062210;28;20695;-56
2021/09/17 00:19:51;;;;;;;3.40;3.10;;;;;22.10;100634.00;;;;2063141;28;20227;-53
2021/09/17 00:20:51;;;;;;;3.17;2.87;;;;;22.10;100635.00;;;;2063555;28;20867;-54
2021/09/17 00:21:51;;;;;;;3.70;3.27;;;;;22.10;100635.00;;;;2063413;28;20742;-52
2021/09/17 00:22:52;;;;;;;3.20;2.90;;;;;22.10;100632.00;;;;2063075;28;20215;-53
2021/09/17 00:23:52;;;;;;;5.30;3.07;;;;;22.10;100629.00;;;;2063339;28;20214;-55
2021/09/17 00:24:52;;;;;;;5.50;3.43;;;;;22.10;100630.00;;;;2063353;28;20695;-53
2021/09/17 00:25:53;;;;;;;3.90;2.60;;;;;22.10;100627.00;;;;2063422;28;20215;-54
2021/09/17 00:26:53;;;;;;;2.87;2.67;;;;;22.10;100629.00;;;;2063373;28;20218;-57
2021/09/17 00:27:54;;;;;;;3.20;3.00;;;;;22.10;100624.00;;;;2063171;28;20676;-56
2021/09/17 00:28:54;;;;;;;4.00;2.90;;;;;22.10;100629.00;;;;2062395;28;20215;-55
2021/09/17 00:29:55;;;;;;;3.13;2.83;;;;;22.10;100630.00;;;;2063030;28;20241;-56
2021/09/17 00:30:55;;;;;;;3.40;3.10;;;;;22.10;100622.00;;;;2063095;28;20225;-55
2021/09/17 00:31:56;;;;;;;3.17;2.87;;;;;22.10;100623.00;;;;2063077;28;20820;-54
2021/09/17 00:32:57;;;;;;;3.23;2.93;;;;;22.10;100620.00;;;;2062456;28;20289;-53
2021/09/17 00:33:57;;;;;;;3.83;2.65;;;;;22.10;100626.00;;;;2062713;28;20217;-55
2021/09/17 00:34:58;;;;;;;3.13;2.83;;;;;22.10;100626.00;;;;2061596;28;20215;-56
2021/09/17 00:35:59;;;;;;;3.78;3.00;;;;;22.10;100628.00;;;;2062364;28;20630;-55
2021/09/17 00:36:59;;;;;;;2.80;2.53;;;;;22.10;100622.00;;;;2062559;28;20238;-53
2021/09/17 00:38:01;;;;;;;3.10;2.80;;;;;22.10;100626.00;;;;2062577;28;20227;-54
2021/09/17 00:39:02;;;;;;;3.25;2.95;;;;;22.10;100621.00;;;;2061297;28;20922;-56
2021/09/17 00:40:03;;;;;;;2.80;2.60;;;;;22.10;100620.00;;;;2062344;28;20710;-56
2021/09/17 00:41:03;;;;;;;2.90;2.60;;;;;22.10;100608.00;;;;2062625;28;20233;-56
2021/09/17 00:42:04;;;;;;;3.33;2.20;;;;;22.10;100621.00;;;;2061851;28;20223;-59
2021/09/17 00:43:04;;;;;;;2.63;2.43;;;;;22.10;100620.00;;;;2062739;28;20726;-54
2021/09/17 00:44:05;;;;;;;2.63;2.40;;;;;22.10;100616.00;;;;2062195;28;20223;-52
2021/09/17 00:45:06;;;;;;;3.00;2.70;;;;;22.10;100616.00;;;;2062708;28;20222;-53
2021/09/17 00:46:06;;;;;;;2.75;2.53;;;;;22.10;100622.00;;;;2063126;28;20250;-54
2021/09/17 00:47:07;;;;;;;2.73;2.53;;;;;22.10;100606.00;;;;2063006;28;20769;-54
2021/09/17 00:48:07;;;;;;;2.60;2.40;;;;;22.10;100612.00;;;;2063154;28;20204;-56
2021/09/17 00:49:08;;;;;;;3.57;2.60;;;;;22.10;100610.00;;;;2061853;28;20257;-56
2021/09/17 00:50:11;;;;;;;2.72;2.53;;;;;22.10;100612.00;;;;2063287;28;20203;-55
2021/09/17 00:51:11;;;;;;;4.20;3.03;;;;;22.10;100608.00;;;;2062035;28;20622;-55
2021/09/17 00:52:12;;;;;;;4.80;2.37;;;;;22.10;100618.00;;;;2062452;28;20207;-56
2021/09/17 00:53:12;;;;;;;2.60;2.40;;;;;22.10;100617.00;;;;2061590;28;20723;-55
2021/09/17 00:54:12;;;;;;;3.23;2.73;;;;;22.10;100613.00;;;;2063128;28;20215;-53
2021/09/17 00:55:13;;;;;;;3.17;2.90;;;;;22.10;100613.00;;;;2062384;28;20210;-54
2021/09/17 00:56:13;;;;;;;2.67;2.47;;;;;22.10;100616.00;;;;2062411;28;20203;-54
2021/09/17 00:57:14;;;;;;;4.07;2.90;;;;;22.10;100613.00;;;;2063047;28;20781;-56
2021/09/17 00:58:15;;;;;;;2.50;2.30;;;;;22.10;100614.00;;;;2063217;28;20211;-56
2021/09/17 00:59:15;;;;;;;2.90;2.60;;;;;22.10;100610.00;;;;2061637;28;20438;-54
2021/09/17 01:00:16;;;;;;;2.60;2.40;;;;;22.10;100615.00;;;;2063012;28;20863;-54
2021/09/17 01:01:16;;;;;;;3.70;2.80;;;;;22.10;100613.00;;;;2062637;28;20222;-56
2021/09/17 01:02:16;;;;;;;2.53;2.33;;;;;22.10;100614.00;;;;2062401;28;20238;-56
2021/09/17 01:03:17;;;;;;;2.93;2.67;;;;;22.10;100567.00;;;;2062482;28;20637;-55
2021/09/17 01:04:17;;;;;;;4.40;2.70;;;;;22.10;100605.00;;;;2062614;28;20695;-53
2021/09/17 01:05:17;;;;;;;3.60;2.50;;;;;22.10;100613.00;;;;2061280;28;20237;-55
2021/09/17 01:06:18;;;;;;;2.80;2.60;;;;;22.10;100606.00;;;;2062491;28;20211;-55
2021/09/17 01:07:18;;;;;;;3.43;2.40;;;;;22.10;100606.00;;;;2061405;28;20718;-55
2021/09/17 01:08:19;;;;;;;2.90;2.37;;;;;22.10;100609.00;;;;2061890;28;20305;-56
2021/09/17 01:09:19;;;;;;;3.63;2.73;;;;;22.10;100609.00;;;;2060442;28;20219;-54
2021/09/17 01:10:19;;;;;;;2.30;2.10;;;;;22.10;100612.00;;;;2061767;28;20234;-53
2021/09/17 01:11:20;;;;;;;2.50;2.30;;;;;22.10;100607.00;;;;2062309;28;20289;-53
2021/09/17 01:12:20;;;;;;;2.20;2.00;;;;;22.10;100606.00;;;;2061029;28;20269;-54
2021/09/17 01:13:21;;;;;;;2.63;2.10;;;;;22.10;100609.00;;;;2061060;28;20210;-54
2021/09/17 01:14:22;;;;;;;3.65;2.78;;;;;22.10;100605.00;;;;2061769;28;20219;-55
2021/09/17 01:15:22;;;;;;;2.13;1.93;;;;;22.10;100611.00;;;;2062010;28;20722;-56
2021/09/17 01:16:23;;;;;;;2.50;2.30;;;;;22.10;100601.00;;;;2062250;28;20234;-55
2021/09/17 01:17:33;;;;;;;2.27;2.07;;;;;22.10;100604.00;;;;2061874;28;20714;-56
2021/09/17 01:18:33;;;;;;;2.22;2.03;;;;;22.10;100602.00;;;;2061910;28;20215;-55
2021/09/17 01:19:35;;;;;;;2.77;2.47;;;;;22.10;100597.00;;;;2060750;28;20222;-54
2021/09/17 01:20:35;;;;;;;2.67;2.47;;;;;22.10;100596.00;;;;2061842;28;20206;-55
2021/09/17 01:21:36;;;;;;;2.23;2.03;;;;;22.10;100595.00;;;;2062613;28;20214;-54
2021/09/17 01:22:36;;;;;;;2.50;2.30;;;;;22.10;100604.00;;;;2062367;28;20211;-54
2021/09/17 01:23:36;;;;;;;2.83;2.10;;;;;22.10;100588.00;;;;2062573;28;20299;-56
2021/09/17 01:24:37;;;;;;;2.37;2.17;;;;;22.10;100590.00;;;;2062715;28;20784;-56
2021/09/17 01:25:38;;;;;;;2.73;2.30;;;;;22.10;100594.00;;;;2062800;28;20221;-53
2021/09/17 01:26:38;;;;;;;2.73;2.53;;;;;22.10;100593.00;;;;2063015;28;20501;-54
2021/09/17 01:27:40;;;;;;;2.80;2.50;;;;;22.10;100592.00;;;;2062200;28;20223;-53
2021/09/17 01:28:41;;;;;;;2.03;1.90;;;;;22.10;100598.00;;;;2061673;28;20219;-53
2021/09/17 01:29:41;;;;;;;2.20;2.00;;;;;22.10;100596.00;;;;2061728;28;20215;-56
2021/09/17 01:30:41;;;;;;;1.93;1.83;;;;;22.10;100590.00;;;;2062039;28;20587;-54
2021/09/17 01:31:42;;;;;;;2.47;2.27;;;;;22.10;100598.00;;;;2061964;28;20246;-52
2021/09/17 01:32:42;;;;;;;2.40;2.20;;;;;22.10;100597.00;;;;2062272;28;20219;-53
2021/09/17 01:33:43;;;;;;;3.17;2.60;;;;;22.10;100593.00;;;;2061537;28;20293;-54
2021/09/17 01:34:43;;;;;;;2.37;2.17;;;;;22.00;100599.00;;;;2062343;28;20745;-55
2021/09/17 01:35:43;;;;;;;2.43;2.23;;;;;22.00;100600.00;;;;2062343;28;20231;-54
2021/09/17 01:36:44;;;;;;;2.60;1.87;;;;;22.10;100593.00;;;;2061252;28;20281;-55
2021/09/17 01:37:45;;;;;;;2.27;2.07;;;;;22.10;100593.00;;;;2061500;28;20217;-54
2021/09/17 01:38:45;;;;;;;3.13;2.70;;;;;22.00;100593.00;;;;2060480;28;20247;-53
2021/09/17 01:39:45;;;;;;;2.20;2.03;;;;;22.10;100582.00;;;;2068391;28;20226;-54
2021/09/17 01:40:46;;;;;;;2.13;1.93;;;;;22.10;100583.00;;;;2062235;28;20218;-53
2021/09/17 01:41:46;;;;;;;2.23;2.10;;;;;22.00;100587.00;;;;2062400;28;20297;-54
2021/09/17 01:42:47;;;;;;;3.10;2.70;;;;;22.10;100593.00;;;;2062235;28;20306;-53
2021/09/17 01:43:48;;;;;;;3.10;2.20;;;;;22.10;100589.00;;;;2061756;28;20477;-54
2021/09/17 01:44:48;;;;;;;2.70;2.50;;;;;22.10;100593.00;;;;2061985;28;20353;-54
2021/09/17 01:45:48;;;;;;;2.70;2.20;;;;;22.10;100594.00;;;;2061911;28;20229;-55
2021/09/17 01:46:49;;;;;;;2.80;2.30;;;;;22.10;100587.00;;;;2062332;28;20218;-54
2021/09/17 01:47:49;;;;;;;2.83;2.10;;;;;22.00;100588.00;;;;2062102;28;20306;-56
2021/09/17 01:48:50;;;;;;;2.40;2.20;;;;;22.10;100588.00;;;;2060755;28;20238;-55
2021/09/17 01:49:50;;;;;;;2.60;2.40;;;;;22.00;100582.00;;;;2062204;28;20289;-54
2021/09/17 01:50:50;;;;;;;2.63;2.20;;;;;22.10;100586.00;;;;2062190;28;20223;-53
2021/09/17 01:51:53;;;;;;;2.50;2.30;;;;;22.00;100580.00;;;;2062099;28;20218;-54
2021/09/17 01:52:53;;;;;;;2.50;2.30;;;;;22.00;100580.00;;;;2062044;28;20230;-55
2021/09/17 01:53:54;;;;;;;2.40;2.20;;;;;22.00;100580.00;;;;2061577;28;20306;-54
2021/09/17 01:54:54;;;;;;;2.10;1.87;;;;;22.00;100577.00;;;;2061987;28;20214;-55
2021/09/17 01:55:54;;;;;;;2.30;2.10;;;;;22.10;100582.00;;;;2061201;28;20211;-56
2021/09/17 01:56:55;;;;;;;2.30;2.10;;;;;22.00;100582.00;;;;2062548;28;20230;-53
2021/09/17 01:57:55;;;;;;;2.57;2.37;;;;;22.00;100588.00;;;;2062594;28;20203;-55
2021/09/17 01:58:55;;;;;;;2.63;2.43;;;;;22.00;100575.00;;;;2061293;28;20968;-55
2021/09/17 01:59:56;;;;;;;1.90;1.80;;;;;22.10;100583.00;;;;2067903;28;20206;-56
2021/09/17 02:00:57;;;;;;;3.03;2.20;;;;;22.10;100579.00;;;;2070355;28;20694;-55
2021/09/17 02:01:57;;;;;;;2.20;2.00;;;;;22.00;100582.00;;;;2070049;28;20300;-54
2021/09/17 02:02:57;;;;;;;2.23;2.07;;;;;22.00;100576.00;;;;2069548;28;20556;-54
2021/09/17 02:03:58;;;;;;;3.53;2.13;;;;;22.00;100583.00;;;;2070482;28;20300;-55
2021/09/17 02:04:58;;;;;;;2.20;2.03;;;;;22.00;100578.00;;;;2065520;28;20722;-56
2021/09/17 02:05:59;;;;;;;2.33;2.13;;;;;22.10;100575.00;;;;2062592;28;20215;-55
2021/09/17 02:06:59;;;;;;;2.97;2.00;;;;;22.00;100577.00;;;;2061178;28;20222;-52
2021/09/17 02:07:59;;;;;;;3.50;2.23;;;;;22.10;100575.00;;;;2062705;28;20235;-54
2021/09/17 02:09:01;;;;;;;2.80;2.33;;;;;22.10;100577.00;;;;2061124;28;20741;-52
2021/09/17 02:10:03;;;;;;;2.40;2.15;;;;;22.10;100580.00;;;;2062336;28;20215;-54
2021/09/17 02:11:04;;;;;;;3.03;2.65;;;;;22.00;100567.00;;;;2062605;28;20215;-54
2021/09/17 02:12:05;;;;;;;2.67;2.33;;;;;22.00;100573.00;;;;2062637;28;20207;-55
2021/09/17 02:13:05;;;;;;;2.72;1.95;;;;;22.00;100570.00;;;;2062466;28;20218;-52
2021/09/17 02:14:05;;;;;;;2.83;2.47;;;;;22.00;100570.00;;;;2061640;28;20579;-54
2021/09/17 02:15:06;;;;;;;2.20;2.10;;;;;22.00;100572.00;;;;2062591;28;20222;-56
2021/09/17 02:16:07;;;;;;;2.47;2.28;;;;;22.00;100568.00;;;;2062265;28;20229;-56
2021/09/17 02:17:07;;;;;;;2.70;2.33;;;;;22.00;100569.00;;;;2062495;28;20241;-53
2021/09/17 02:18:08;;;;;;;3.63;2.33;;;;;22.00;100571.00;;;;2062558;28;20298;-56
2021/09/17 02:19:08;;;;;;;2.50;2.30;;;;;22.00;100569.00;;;;2061325;28;20244;-54
2021/09/17 02:20:09;;;;;;;2.47;2.23;;;;;22.00;100566.00;;;;2062144;28;20219;-56
2021/09/17 02:21:09;;;;;;;2.37;2.17;;;;;22.00;100572.00;;;;2062245;28;20217;-53
2021/09/17 02:22:10;;;;;;;2.90;2.60;;;;;22.00;100577.00;;;;2061309;28;20226;-53
2021/09/17 02:23:10;;;;;;;3.00;2.13;;;;;22.00;100578.00;;;;2061884;28;20297;-53
2021/09/17 02:24:10;;;;;;;2.87;2.10;;;;;22.00;100570.00;;;;2062047;28;20229;-54
2021/09/17 02:25:11;;;;;;;2.53;2.20;;;;;22.00;100569.00;;;;2062612;28;20318;-54
2021/09/17 02:26:11;;;;;;;2.93;2.50;;;;;22.00;100572.00;;;;2062349;28;20222;-54
2021/09/17 02:27:11;;;;;;;2.23;2.00;;;;;22.10;100565.00;;;;2062498;28;20250;-56
2021/09/17 02:28:12;;;;;;;2.43;2.23;;;;;22.00;100567.00;;;;2062432;28;20238;-52
2021/09/17 02:29:12;;;;;;;2.70;2.50;;;;;22.00;100566.00;;;;2060826;28;20298;-55
2021/09/17 02:30:13;;;;;;;2.40;2.20;;;;;22.00;100565.00;;;;2062516;28;20794;-55
2021/09/17 02:31:13;;;;;;;3.70;2.60;;;;;22.10;100567.00;;;;2061773;28;20763;-54
2021/09/17 02:32:13;;;;;;;2.50;2.30;;;;;22.00;100562.00;;;;2062201;28;20302;-55
2021/09/17 02:33:14;;;;;;;2.47;2.27;;;;;22.00;100563.00;;;;2062434;28;20214;-54
2021/09/17 02:34:14;;;;;;;2.60;2.27;;;;;22.00;100566.00;;;;2068089;28;20218;-54
2021/09/17 02:35:15;;;;;;;2.80;2.40;;;;;22.00;100563.00;;;;2064514;28;20764;-55
2021/09/17 02:36:15;;;;;;;2.50;2.30;;;;;22.00;100557.00;;;;2062420;28;20211;-55
2021/09/17 02:37:15;;;;;;;2.50;2.30;;;;;22.00;100557.00;;;;2061952;28;20227;-56
2021/09/17 02:38:17;;;;;;;2.60;2.40;;;;;22.00;100566.00;;;;2062223;28;20302;-56
2021/09/17 02:39:17;;;;;;;2.40;2.20;;;;;22.00;100560.00;;;;2061297;28;20234;-55
2021/09/17 02:40:17;;;;;;;3.13;2.50;;;;;22.00;100551.00;;;;2062419;28;20223;-55
2021/09/17 02:41:18;;;;;;;2.60;2.40;;;;;22.00;100554.00;;;;2062504;28;20302;-55
2021/09/17 02:42:18;;;;;;;2.57;2.37;;;;;22.00;100551.00;;;;2062061;28;20635;-53
2021/09/17 02:43:18;;;;;;;2.80;2.60;;;;;22.00;100560.00;;;;2062052;28;20211;-54
2021/09/17 02:44:19;;;;;;;2.40;2.13;;;;;22.00;100553.00;;;;2063967;28;20439;-56
2021/09/17 02:45:19;;;;;;;3.30;2.60;;;;;22.00;100561.00;;;;2062166;28;20213;-56
2021/09/17 02:46:20;;;;;;;2.87;2.40;;;;;22.00;100557.00;;;;2062316;28;20223;-55
2021/09/17 02:47:20;;;;;;;2.33;2.13;;;;;22.00;100561.00;;;;2062360;28;20222;-55
2021/09/17 02:48:21;;;;;;;2.20;2.00;;;;;22.00;100551.00;;;;2063194;28;20219;-52
2021/09/17 02:49:21;;;;;;;3.67;2.93;;;;;22.00;100557.00;;;;2070572;28;20230;-53
2021/09/17 02:50:21;;;;;;;2.57;2.37;;;;;22.00;100554.00;;;;2070879;28;20206;-54
2021/09/17 02:51:22;;;;;;;2.50;2.30;;;;;22.00;100546.00;;;;2070736;28;20206;-55
2021/09/17 02:52:23;;;;;;;2.80;2.10;;;;;22.00;100549.00;;;;2070234;28;20587;-59
2021/09/17 02:53:23;;;;;;;2.80;2.60;;;;;22.00;100549.00;;;;2070845;28;20277;-56
2021/09/17 02:54:24;;;;;;;2.50;2.23;;;;;22.00;100552.00;;;;2069999;28;20214;-56
2021/09/17 02:55:24;;;;;;;4.03;2.37;;;;;22.00;100558.00;;;;2070286;28;20210;-56
2021/09/17 02:56:25;;;;;;;2.50;2.30;;;;;22.00;100556.00;;;;2070896;28;20697;-56
2021/09/17 02:57:25;;;;;;;3.20;2.30;;;;;22.00;100563.00;;;;2069985;28;20688;-54
2021/09/17 02:58:25;;;;;;;2.37;2.17;;;;;22.00;100547.00;;;;2070763;28;20241;-54
2021/09/17 02:59:26;;;;;;;2.40;2.20;;;;;22.00;100547.00;;;;2064758;28;20215;-54
2021/09/17 03:00:26;;;;;;;2.70;2.50;;;;;22.00;100553.00;;;;2062762;28;20302;-56
2021/09/17 03:01:27;;;;;;;2.93;2.63;;;;;21.90;100555.00;;;;2062732;28;20217;-54
2021/09/17 03:02:27;;;;;;;2.70;2.50;;;;;22.00;100553.00;;;;2062285;28;20298;-55
2021/09/17 03:03:27;;;;;;;2.67;2.47;;;;;22.00;100548.00;;;;2063498;28;20564;-57
2021/09/17 03:04:28;;;;;;;2.60;2.30;;;;;22.00;100542.00;;;;2062312;28;20322;-55
2021/09/17 03:05:28;;;;;;;3.27;2.70;;;;;22.00;100543.00;;;;2062597;28;20203;-55
2021/09/17 03:06:28;;;;;;;2.80;2.60;;;;;22.00;100545.00;;;;2062770;28;20671;-55
2021/09/17 03:07:29;;;;;;;2.90;2.70;;;;;22.00;100542.00;;;;2062689;28;20588;-53
2021/09/17 03:08:29;;;;;;;3.00;2.70;;;;;22.00;100545.00;;;;2062832;28;20229;-53
2021/09/17 03:09:29;;;;;;;2.40;2.20;;;;;22.00;100541.00;;;;2061619;28;20218;-55
2021/09/17 03:10:30;;;;;;;2.73;2.53;;;;;22.00;100542.00;;;;2062613;28;20242;-53
2021/09/17 03:11:30;;;;;;;2.70;2.50;;;;;22.00;100537.00;;;;2062636;28;20758;-54
2021/09/17 03:12:31;;;;;;;2.57;2.37;;;;;22.00;100540.00;;;;2062579;28;20265;-55
2021/09/17 03:13:31;;;;;;;3.80;3.10;;;;;22.00;100532.00;;;;2062442;28;20206;-54
2021/09/17 03:14:32;;;;;;;3.00;2.80;;;;;22.00;100535.00;;;;2066027;28;20460;-55
2021/09/17 03:15:32;;;;;;;2.93;2.67;;;;;22.00;100537.00;;;;2065177;28;20627;-56
2021/09/17 03:16:33;;;;;;;2.77;2.47;;;;;22.00;100532.00;;;;2064304;28;20242;-55
2021/09/17 03:17:33;;;;;;;2.63;2.43;;;;;22.00;100529.00;;;;2064116;28;20223;-56
2021/09/17 03:18:34;;;;;;;2.30;2.00;;;;;22.00;100532.00;;;;2064303;28;20675;-53
2021/09/17 03:19:35;;;;;;;2.90;2.70;;;;;22.00;100537.00;;;;2063871;28;20630;-55
2021/09/17 03:20:35;;;;;;;4.37;3.17;;;;;22.00;100530.00;;;;2063318;28;20622;-56
2021/09/17 03:21:35;;;;;;;3.40;2.60;;;;;22.00;100531.00;;;;2063656;28;20525;-53
2021/09/17 03:22:36;;;;;;;3.00;2.37;;;;;22.00;100530.00;;;;2059939;28;20234;-55
2021/09/17 03:23:36;;;;;;;3.83;3.20;;;;;22.00;100525.00;;;;2063666;28;20671;-55
2021/09/17 03:24:36;;;;;;;3.17;2.67;;;;;22.00;100525.00;;;;2064866;28;20219;-55
2021/09/17 03:25:37;;;;;;;3.30;2.97;;;;;22.00;100525.00;;;;2071650;28;20210;-56
2021/09/17 03:26:37;;;;;;;4.00;3.60;;;;;22.00;100526.00;;;;2065581;28;20238;-55
2021/09/17 03:27:37;;;;;;;3.27;2.97;;;;;22.00;100528.00;;;;2063248;28;20307;-54
2021/09/17 03:28:38;;;;;;;3.33;2.63;;;;;22.00;100529.00;;;;2063768;28;20354;-54
2021/09/17 03:29:38;;;;;;;3.43;2.53;;;;;22.00;100527.00;;;;2063516;28;20253;-55
2021/09/17 03:30:39;;;;;;;3.30;3.00;;;;;22.00;100531.00;;;;2064182;28;20691;-56
2021/09/17 03:31:39;;;;;;;3.60;3.27;;;;;22.00;100528.00;;;;2064138;28;20211;-55
2021/09/17 03:32:39;;;;;;;3.50;2.90;;;;;22.00;100532.00;;;;2064250;28;20273;-54
2021/09/17 03:33:40;;;;;;;3.07;2.77;;;;;22.00;100497.00;;;;2064141;28;20242;-54
2021/09/17 03:34:40;;;;;;;3.67;3.37;;;;;22.00;100532.00;;;;2064129;28;20742;-52
2021/09/17 03:35:40;;;;;;;3.87;3.43;;;;;22.00;100533.00;;;;2064356;28;20230;-53
2021/09/17 03:36:43;;;;;;;4.10;3.70;;;;;22.00;100528.00;;;;2063920;28;20307;-53
2021/09/17 03:37:44;;;;;;;3.40;3.10;;;;;21.90;100536.00;;;;2064111;28;20211;-56
2021/09/17 03:38:44;;;;;;;3.83;3.13;;;;;22.00;100527.00;;;;2063946;28;20229;-52
2021/09/17 03:39:44;;;;;;;4.20;3.47;;;;;22.00;100529.00;;;;2064055;28;20234;-55
2021/09/17 03:40:47;;;;;;;3.07;2.87;;;;;22.00;100532.00;;;;2063130;28;20222;-56
2021/09/17 03:41:47;;;;;;;2.92;2.72;;;;;22.00;100529.00;;;;2063968;28;20695;-54
2021/09/17 03:42:47;;;;;;;3.47;3.17;;;;;22.00;100536.00;;;;2066246;28;20262;-57
2021/09/17 03:43:48;;;;;;;3.73;3.43;;;;;22.00;100531.00;;;;2069599;28;20476;-56
2021/09/17 03:44:48;;;;;;;4.57;4.17;;;;;22.00;100536.00;;;;2069357;28;20229;-55
2021/09/17 03:45:48;;;;;;;4.30;3.90;;;;;22.00;100530.00;;;;2064025;28;20614;-53
2021/09/17 03:46:49;;;;;;;4.53;4.10;;;;;22.00;100530.00;;;;2063891;28;20269;-56
2021/09/17 03:47:49;;;;;;;3.73;3.40;;;;;22.00;100529.00;;;;2064560;28;20245;-55
2021/09/17 03:48:50;;;;;;;4.00;3.60;;;;;22.00;100533.00;;;;2070685;28;20618;-55
2021/09/17 03:49:51;;;;;;;4.20;3.90;;;;;22.00;100531.00;;;;2067715;28;20226;-52
2021/09/17 03:50:51;;;;;;;7.47;4.37;;;;;22.00;100528.00;;;;2063844;28;20568;-56
2021/09/17 03:51:51;;;;;;;4.43;4.13;;;;;22.00;100526.00;;;;2063949;28;20287;-55
2021/09/17 03:52:52;;;;;;;3.80;3.50;;;;;22.00;100530.00;;;;2063878;28;20382;-54
2021/09/17 03:53:52;;;;;;;4.37;3.97;;;;;22.00;100528.00;;;;2064114;28;20222;-55
2021/09/17 03:54:52;;;;;;;7.13;4.30;;;;;22.00;100531.00;;;;2063870;28;20207;-55
2021/09/17 03:55:53;;;;;;;5.70;4.07;;;;;22.00;100530.00;;;;2063937;28;20217;-53
2021/09/17 03:56:57;;;;;;;4.23;3.83;;;;;22.00;100528.00;;;;2063960;28;20218;-53
2021/09/17 03:57:57;;;;;;;4.35;3.95;;;;;22.00;100522.00;;;;2063899;28;20691;-54
2021/09/17 03:58:57;;;;;;;3.47;3.17;;;;;22.00;100525.00;;;;2063664;28;20352;-54
2021/09/17 03:59:58;;;;;;;4.37;3.97;;;;;22.00;100517.00;;;;2061747;28;20207;-55
2021/09/17 04:00:58;;;;;;;4.80;4.37;;;;;22.00;100523.00;;;;2063930;28;20222;-55
2021/09/17 04:02:00;;;;;;;3.70;3.40;;;;;22.00;100527.00;;;;2063940;28;20315;-56
2021/09/17 04:03:01;;;;;;;4.10;3.70;;;;;22.00;100517.00;;;;2063743;28;20219;-53
2021/09/17 04:04:01;;;;;;;3.80;3.50;;;;;22.00;100519.00;;;;2064040;28;20273;-55
2021/09/17 04:05:01;;;;;;;4.70;4.30;;;;;22.00;100525.00;;;;2063802;28;20211;-55
2021/09/17 04:06:02;;;;;;;4.10;3.70;;;;;22.00;100519.00;;;;2063743;28;20284;-54
2021/09/17 04:07:02;;;;;;;4.33;4.03;;;;;22.00;100526.00;;;;2063406;28;20294;-59
2021/09/17 04:08:03;;;;;;;4.20;3.80;;;;;22.00;100531.00;;;;2063954;28;20638;-57
2021/09/17 04:09:03;;;;;;;4.07;3.73;;;;;22.00;100522.00;;;;2066266;28;20225;-54
2021/09/17 04:10:07;;;;;;;4.23;3.93;;;;;22.00;100523.00;;;;2072022;28;20674;-56
2021/09/17 04:11:07;;;;;;;5.25;4.75;;;;;22.00;100526.00;;;;2066326;28;20214;-52
2021/09/17 04:12:08;;;;;;;4.83;4.33;;;;;22.00;100522.00;;;;2063854;28;20261;-55
2021/09/17 04:13:08;;;;;;;5.23;4.73;;;;;22.00;100525.00;;;;2063086;28;20222;-55
2021/09/17 04:14:08;;;;;;;4.30;3.90;;;;;22.00;100522.00;;;;2062861;28;20321;-56
2021/09/17 04:15:09;;;;;;;5.23;4.47;;;;;22.00;100521.00;;;;2063823;28;20246;-56
2021/09/17 04:16:09;;;;;;;4.40;4.10;;;;;22.00;100526.00;;;;2063961;28;20238;-54
2021/09/17 04:17:10;;;;;;;4.80;4.27;;;;;22.00;100529.00;;;;2063883;28;20468;-52
2021/09/17 04:18:10;;;;;;;4.07;3.77;;;;;22.00;100526.00;;;;2063966;28;20228;-54
2021/09/17 04:19:11;;;;;;;5.50;4.30;;;;;22.00;100524.00;;;;2063336;28;20215;-56
2021/09/17 04:20:12;;;;;;;4.20;3.90;;;;;22.00;100522.00;;;;2063859;28;20215;-55
2021/09/17 04:21:12;;;;;;;4.40;4.00;;;;;22.00;100522.00;;;;2063956;28;20752;-55
2021/09/17 04:22:12;;;;;;;4.60;4.20;;;;;22.00;100524.00;;;;2063825;28;20261;-55
2021/09/17 04:23:13;;;;;;;5.10;4.60;;;;;22.00;100525.00;;;;2063820;28;20207;-56
2021/09/17 04:24:13;;;;;;;4.70;4.30;;;;;22.00;100521.00;;;;2063611;28;20261;-56
2021/09/17 04:25:13;;;;;;;4.33;3.73;;;;;22.00;100525.00;;;;2063367;28;20214;-55
2021/09/17 04:26:14;;;;;;;6.37;4.63;;;;;22.00;100524.00;;;;2066105;28;20210;-54
2021/09/17 04:27:14;;;;;;;4.83;4.30;;;;;22.00;100525.00;;;;2064190;28;20745;-55
2021/09/17 04:28:14;;;;;;;6.97;4.53;;;;;22.00;100523.00;;;;2063280;28;20310;-55
2021/09/17 04:29:15;;;;;;;4.53;4.00;;;;;22.00;100516.00;;;;2062250;28;20210;-56
2021/09/17 04:30:15;;;;;;;4.70;4.30;;;;;22.00;100526.00;;;;2063338;28;20203;-56
2021/09/17 04:31:16;;;;;;;4.70;3.70;;;;;22.00;100524.00;;;;2063378;28;20199;-55
2021/09/17 04:32:16;;;;;;;4.70;3.57;;;;;22.00;100527.00;;;;2069047;28;20206;-54
2021/09/17 04:33:16;;;;;;;5.50;2.97;;;;;22.00;100523.00;;;;2071577;28;20269;-54
2021/09/17 04:34:17;;;;;;;3.57;3.00;;;;;22.00;100520.00;;;;2070986;28;20306;-56
2021/09/17 04:35:17;;;;;;;5.10;3.37;;;;;22.00;100524.00;;;;2071268;28;20290;-54
2021/09/17 04:36:17;;;;;;;3.97;3.03;;;;;22.10;100524.00;;;;2070724;28;20206;-55
2021/09/17 04:37:18;;;;;;;3.80;3.33;;;;;22.10;100519.00;;;;2070744;28;20218;-56
2021/09/17 04:38:18;;;;;;;7.30;4.47;;;;;22.00;100517.00;;;;2071474;28;20218;-55
2021/09/17 04:39:19;;;;;;;4.70;4.10;;;;;22.00;100524.00;;;;2065307;28;20221;-55
2021/09/17 04:40:19;;;;;;;7.43;4.80;;;;;22.10;100514.00;;;;2061614;28;20687;-56
2021/09/17 04:41:19;;;;;;;6.97;5.37;;;;;22.00;100523.00;;;;2060485;28;20234;-54
2021/09/17 04:42:20;;;;;;;4.97;4.20;;;;;22.00;100518.00;;;;2063416;28;20325;-54
2021/09/17 04:43:20;;;;;;;7.37;4.40;;;;;22.10;100516.00;;;;2063275;28;20234;-54
2021/09/17 04:44:20;;;;;;;7.63;4.13;;;;;22.00;100520.00;;;;2063102;28;20301;-53
2021/09/17 04:45:21;;;;;;;5.63;3.90;;;;;22.10;100522.00;;;;2062283;28;20219;-55
2021/09/17 04:46:21;;;;;;;5.40;3.60;;;;;22.10;100525.00;;;;2063243;28;20211;-55
2021/09/17 04:47:21;;;;;;;3.70;3.37;;;;;22.10;100519.00;;;;2063011;28;20210;-55
2021/09/17 04:48:22;;;;;;;3.53;3.23;;;;;22.10;100517.00;;;;2063116;28;20684;-55
2021/09/17 04:49:22;;;;;;;6.13;3.67;;;;;22.10;100516.00;;;;2061195;28;20625;-56
2021/09/17 04:50:22;;;;;;;4.63;3.40;;;;;22.10;100517.00;;;;2063259;28;20564;-55
2021/09/17 04:51:23;;;;;;;4.47;3.30;;;;;22.10;100516.00;;;;2063078;28;20261;-56
2021/09/17 04:52:23;;;;;;;8.73;3.47;;;;;22.10;100523.00;;;;2063167;28;20215;-56
2021/09/17 04:53:24;;;;;;;3.50;3.20;;;;;22.10;100517.00;;;;2063113;28;20290;-56
2021/09/17 04:54:25;;;;;;;4.25;3.17;;;;;22.10;100522.00;;;;2066386;28;20205;-54
2021/09/17 04:55:25;;;;;;;3.67;3.37;;;;;22.10;100518.00;;;;2065002;28;20202;-55
2021/09/17 04:56:25;;;;;;;3.53;3.23;;;;;22.10;100522.00;;;;2062760;28;20202;-55
2021/09/17 04:57:27;;;;;;;7.03;3.80;;;;;22.10;100524.00;;;;2062973;28;20899;-56
2021/09/17 04:58:27;;;;;;;3.95;2.88;;;;;22.10;100521.00;;;;2062463;28;20211;-54
2021/09/17 04:59:28;;;;;;;4.23;3.30;;;;;22.10;100525.00;;;;2061291;28;20781;-56